createdAt,value
2022-10-20T00:00:54.652Z,1023.78
2022-10-20T00:01:54.641Z,1023.75
2022-10-20T00:02:54.694Z,1023.80
2022-10-20T00:03:54.648Z,1023.75
2022-10-20T00:04:54.610Z,1023.76
2022-10-20T00:05:54.586Z,1023.80
2022-10-20T00:06:54.578Z,1023.80
2022-10-20T00:07:54.565Z,1023.81
2022-10-20T00:08:54.635Z,1023.74
2022-10-20T00:09:54.535Z,1023.70
2022-10-20T00:10:54.526Z,1023.71
2022-10-20T00:11:54.514Z,1023.68
2022-10-20T00:12:54.495Z,1023.66
2022-10-20T00:13:54.501Z,1023.62
2022-10-20T00:14:54.485Z,1023.65
2022-10-20T00:15:54.464Z,1023.61
2022-10-20T00:16:54.445Z,1023.57
2022-10-20T00:17:54.436Z,1023.54
2022-10-20T00:18:54.433Z,1023.53
2022-10-20T00:19:54.422Z,1023.48
2022-10-20T00:20:54.389Z,1023.52
2022-10-20T00:21:54.386Z,1023.50
2022-10-20T00:22:54.394Z,1023.60
2022-10-20T00:23:54.375Z,1023.59
2022-10-20T00:24:54.373Z,1023.57
2022-10-20T00:25:54.366Z,1023.53
2022-10-20T00:26:54.314Z,1023.61
2022-10-20T00:27:54.309Z,1023.63
2022-10-20T00:28:54.303Z,1023.61
2022-10-20T00:29:54.283Z,1023.55
2022-10-20T00:30:54.266Z,1023.66
2022-10-20T00:31:54.257Z,1023.56
2022-10-20T00:32:54.247Z,1023.61
2022-10-20T00:33:54.237Z,1023.56
2022-10-20T00:34:54.213Z,1023.62
2022-10-20T00:35:54.203Z,1023.58
2022-10-20T00:36:54.191Z,1023.54
2022-10-20T00:37:54.175Z,1023.54
2022-10-20T00:38:54.179Z,1023.54
2022-10-20T00:39:54.166Z,1023.50
2022-10-20T00:40:54.139Z,1023.49
2022-10-20T00:41:54.125Z,1023.50
2022-10-20T00:42:54.111Z,1023.43
2022-10-20T00:43:54.115Z,1023.44
2022-10-20T00:44:54.098Z,1023.42
2022-10-20T00:45:54.076Z,1023.44
2022-10-20T00:46:54.057Z,1023.37
2022-10-20T00:47:54.056Z,1023.46
2022-10-20T00:48:54.050Z,1023.41
2022-10-20T00:49:54.020Z,1023.42
2022-10-20T00:50:54.011Z,1023.34
2022-10-20T00:51:53.997Z,1023.28
2022-10-20T00:52:53.986Z,1023.35
2022-10-20T00:53:53.977Z,1023.35
2022-10-20T00:54:53.967Z,1023.31
2022-10-20T00:55:53.945Z,1023.35
2022-10-20T00:56:53.959Z,1023.32
2022-10-20T00:57:53.923Z,1023.25
2022-10-20T00:58:53.901Z,1023.20
2022-10-20T00:59:53.918Z,1023.13
2022-10-20T01:00:53.871Z,1023.19
2022-10-20T01:01:53.955Z,1023.14
2022-10-20T01:02:53.853Z,1023.21
2022-10-20T01:03:53.860Z,1023.13
2022-10-20T01:04:53.834Z,1023.22
2022-10-20T01:05:53.812Z,1023.26
2022-10-20T01:06:53.800Z,1023.27
2022-10-20T01:07:53.791Z,1023.23
2022-10-20T01:08:53.809Z,1023.21
2022-10-20T01:09:53.785Z,1023.26
2022-10-20T01:10:53.744Z,1023.27
2022-10-20T01:11:53.739Z,1023.24
2022-10-20T01:12:53.713Z,1023.24
2022-10-20T01:13:53.710Z,1023.18
2022-10-20T01:14:53.715Z,1023.18
2022-10-20T01:15:53.681Z,1023.18
2022-10-20T01:16:53.671Z,1023.14
2022-10-20T01:17:53.665Z,1023.11
2022-10-20T01:18:53.639Z,1023.07
2022-10-20T01:19:53.663Z,1023.08
2022-10-20T01:20:53.612Z,1023.08
2022-10-20T01:21:53.600Z,1023.12
2022-10-20T01:22:53.591Z,1023.11
2022-10-20T01:23:53.585Z,1023.12
2022-10-20T01:24:53.595Z,1023.07
2022-10-20T01:25:53.562Z,1023.15
2022-10-20T01:26:53.534Z,1023.02
2022-10-20T01:27:53.524Z,1023.04
2022-10-20T01:28:53.509Z,1022.97
2022-10-20T01:29:53.519Z,1022.94
2022-10-20T01:30:53.510Z,1022.94
2022-10-20T01:31:53.470Z,1022.96
2022-10-20T01:32:53.458Z,1022.95
2022-10-20T01:33:53.468Z,1022.91
2022-10-20T01:34:53.439Z,1022.94
2022-10-20T01:35:53.427Z,1022.89
2022-10-20T01:36:53.423Z,1022.91
2022-10-20T01:37:53.560Z,1022.86
2022-10-20T01:38:53.378Z,1022.80
2022-10-20T01:39:53.382Z,1022.81
2022-10-20T01:40:53.354Z,1022.76
2022-10-20T01:41:53.374Z,1022.72
2022-10-20T01:42:53.333Z,1022.68
2022-10-20T01:43:53.319Z,1022.66
2022-10-20T01:44:53.305Z,1022.64
2022-10-20T01:45:53.289Z,1022.59
2022-10-20T01:46:53.305Z,1022.66
2022-10-20T01:47:53.266Z,1022.72
2022-10-20T01:48:53.248Z,1022.63
2022-10-20T01:49:53.256Z,1022.56
2022-10-20T01:50:53.219Z,1022.56
2022-10-20T01:51:53.223Z,1022.55
2022-10-20T01:52:53.248Z,1022.57
2022-10-20T01:53:53.187Z,1022.55
2022-10-20T01:54:53.192Z,1022.60
2022-10-20T01:55:53.164Z,1022.60
2022-10-20T01:56:53.151Z,1022.64
2022-10-20T01:57:53.143Z,1022.57
2022-10-20T01:58:53.120Z,1022.51
2022-10-20T01:59:53.120Z,1022.58
2022-10-20T02:00:53.159Z,1022.56
2022-10-20T02:01:53.113Z,1022.53
2022-10-20T02:02:53.079Z,1022.59
2022-10-20T02:03:53.053Z,1022.48
2022-10-20T02:04:53.051Z,1022.55
2022-10-20T02:05:53.047Z,1022.53
2022-10-20T02:06:53.022Z,1022.43
2022-10-20T02:07:53.005Z,1022.41
2022-10-20T02:08:53.029Z,1022.42
2022-10-20T02:09:52.987Z,1022.36
2022-10-20T02:10:52.961Z,1022.43
2022-10-20T02:11:52.960Z,1022.36
2022-10-20T02:12:52.944Z,1022.29
2022-10-20T02:13:52.935Z,1022.30
2022-10-20T02:14:52.920Z,1022.21
2022-10-20T02:15:52.891Z,1022.25
2022-10-20T02:16:52.897Z,1022.21
2022-10-20T02:17:52.870Z,1022.20
2022-10-20T02:18:52.901Z,1022.11
2022-10-20T02:19:52.854Z,1022.13
2022-10-20T02:20:52.847Z,1022.19
2022-10-20T02:21:52.812Z,1022.16
2022-10-20T02:22:52.811Z,1022.16
2022-10-20T02:23:52.799Z,1022.12
2022-10-20T02:24:52.781Z,1022.11
2022-10-20T02:25:52.778Z,1022.06
2022-10-20T02:26:52.747Z,1022.03
2022-10-20T02:27:52.761Z,1022.03
2022-10-20T02:28:52.747Z,1022.11
2022-10-20T02:29:52.720Z,1022.08
2022-10-20T02:30:52.702Z,1022.06
2022-10-20T02:31:52.697Z,1022.00
2022-10-20T02:32:52.684Z,1021.99
2022-10-20T02:33:52.678Z,1022.05
2022-10-20T02:34:52.654Z,1022.06
2022-10-20T02:35:52.634Z,1022.06
2022-10-20T02:36:52.629Z,1022.07
2022-10-20T02:37:52.622Z,1021.98
2022-10-20T02:38:52.621Z,1022.00
2022-10-20T02:39:52.593Z,1021.97
2022-10-20T02:40:52.568Z,1021.97
2022-10-20T02:41:52.561Z,1021.93
2022-10-20T02:42:52.545Z,1022.00
2022-10-20T02:43:52.570Z,1022.01
2022-10-20T02:44:52.531Z,1021.99
2022-10-20T02:45:52.502Z,1022.00
2022-10-20T02:46:52.499Z,1022.00
2022-10-20T02:47:52.513Z,1022.05
2022-10-20T02:48:52.482Z,1022.00
2022-10-20T02:49:52.448Z,1022.03
2022-10-20T02:50:52.439Z,1022.03
2022-10-20T02:51:52.425Z,1022.01
2022-10-20T02:52:52.415Z,1022.07
2022-10-20T02:53:52.436Z,1022.04
2022-10-20T02:54:52.384Z,1022.07
2022-10-20T02:55:52.366Z,1022.04
2022-10-20T02:56:52.367Z,1022.04
2022-10-20T02:57:52.359Z,1022.10
2022-10-20T02:58:52.353Z,1021.97
2022-10-20T02:59:52.320Z,1022.00
2022-10-20T03:00:52.319Z,1021.96
2022-10-20T03:01:52.409Z,1022.04
2022-10-20T03:02:52.300Z,1021.96
2022-10-20T03:03:52.277Z,1021.94
2022-10-20T03:04:52.253Z,1022.00
2022-10-20T03:05:52.232Z,1021.96
2022-10-20T03:06:52.252Z,1021.97
2022-10-20T03:07:52.212Z,1021.97
2022-10-20T03:08:52.266Z,1021.98
2022-10-20T03:09:52.191Z,1021.98
2022-10-20T03:10:52.219Z,1022.02
2022-10-20T03:11:52.155Z,1021.97
2022-10-20T03:12:52.194Z,1021.90
2022-10-20T03:13:52.172Z,1021.94
2022-10-20T03:14:52.133Z,1021.84
2022-10-20T03:15:52.101Z,1021.82
2022-10-20T03:16:52.099Z,1021.81
2022-10-20T03:17:52.078Z,1021.82
2022-10-20T03:18:52.089Z,1021.82
2022-10-20T03:19:52.069Z,1021.87
2022-10-20T03:20:52.051Z,1021.86
2022-10-20T03:21:52.029Z,1021.84
2022-10-20T03:22:52.040Z,1021.85
2022-10-20T03:23:52.034Z,1021.90
2022-10-20T03:24:51.998Z,1021.85
2022-10-20T03:25:51.979Z,1021.80
2022-10-20T03:26:51.978Z,1021.85
2022-10-20T03:27:51.954Z,1021.87
2022-10-20T03:28:51.981Z,1021.82
2022-10-20T03:29:51.918Z,1021.81
2022-10-20T03:30:51.921Z,1021.83
2022-10-20T03:31:51.905Z,1021.81
2022-10-20T03:32:51.885Z,1021.73
2022-10-20T03:33:51.901Z,1021.76
2022-10-20T03:34:51.867Z,1021.78
2022-10-20T03:35:51.844Z,1021.77
2022-10-20T03:36:51.847Z,1021.69
2022-10-20T03:37:51.818Z,1021.71
2022-10-20T03:38:51.827Z,1021.66
2022-10-20T03:39:51.828Z,1021.66
2022-10-20T03:40:51.828Z,1021.71
2022-10-20T03:41:51.804Z,1021.62
2022-10-20T03:42:51.767Z,1021.70
2022-10-20T03:43:51.774Z,1021.63
2022-10-20T03:44:51.737Z,1021.67
2022-10-20T03:45:54.537Z,1021.70
2022-10-20T03:46:51.708Z,1021.67
2022-10-20T03:47:51.716Z,1021.59
2022-10-20T03:48:51.695Z,1021.60
2022-10-20T03:49:51.730Z,1021.61
2022-10-20T03:50:51.652Z,1021.60
2022-10-20T03:51:51.635Z,1021.58
2022-10-20T03:52:51.672Z,1021.59
2022-10-20T03:53:51.622Z,1021.61
2022-10-20T03:54:51.606Z,1021.65
2022-10-20T03:55:51.588Z,1021.57
2022-10-20T03:56:51.585Z,1021.58
2022-10-20T03:57:51.586Z,1021.60
2022-10-20T03:58:51.594Z,1021.58
2022-10-20T03:59:51.531Z,1021.59
2022-10-20T04:00:51.522Z,1021.59
2022-10-20T04:01:51.572Z,1021.60
2022-10-20T04:02:51.507Z,1021.57
2022-10-20T04:03:51.489Z,1021.51
2022-10-20T04:04:51.494Z,1021.52
2022-10-20T04:05:51.459Z,1021.57
2022-10-20T04:06:51.441Z,1021.49
2022-10-20T04:07:51.440Z,1021.52
2022-10-20T04:08:51.465Z,1021.56
2022-10-20T04:09:51.398Z,1021.55
2022-10-20T04:10:51.392Z,1021.48
2022-10-20T04:11:51.375Z,1021.49
2022-10-20T04:12:51.371Z,1021.43
2022-10-20T04:13:51.389Z,1021.47
2022-10-20T04:14:51.347Z,1021.42
2022-10-20T04:15:51.338Z,1021.51
2022-10-20T04:16:51.310Z,1021.49
2022-10-20T04:17:51.289Z,1021.48
2022-10-20T04:18:51.333Z,1021.49
2022-10-20T04:19:51.274Z,1021.49
2022-10-20T04:20:51.265Z,1021.48
2022-10-20T04:21:51.236Z,1021.49
2022-10-20T04:22:51.238Z,1021.42
2022-10-20T04:23:51.254Z,1021.37
2022-10-20T04:24:51.210Z,1021.39
2022-10-20T04:25:51.196Z,1021.36
2022-10-20T04:26:51.207Z,1021.39
2022-10-20T04:27:51.162Z,1021.38
2022-10-20T04:28:51.166Z,1021.43
2022-10-20T04:29:51.149Z,1021.46
2022-10-20T04:30:51.123Z,1021.39
2022-10-20T04:31:51.105Z,1021.37
2022-10-20T04:32:51.112Z,1021.38
2022-10-20T04:33:51.093Z,1021.40
2022-10-20T04:34:51.099Z,1021.43
2022-10-20T04:36:51.050Z,1021.40
2022-10-20T04:37:51.026Z,1021.26
2022-10-20T04:38:51.045Z,1021.32
2022-10-20T04:39:50.995Z,1021.34
2022-10-20T04:40:50.993Z,1021.28
2022-10-20T04:41:50.973Z,1021.24
2022-10-20T04:42:50.980Z,1021.28
2022-10-20T04:43:50.996Z,1021.18
2022-10-20T04:44:51.000Z,1021.22
2022-10-20T04:45:50.920Z,1021.18
2022-10-20T04:46:50.911Z,1021.10
2022-10-20T04:47:50.898Z,1021.08
2022-10-20T04:48:50.897Z,1021.06
2022-10-20T04:49:50.866Z,1021.12
2022-10-20T04:50:50.873Z,1021.08
2022-10-20T04:51:50.845Z,1021.04
2022-10-20T04:52:50.829Z,1020.98
2022-10-20T04:53:50.817Z,1020.90
2022-10-20T04:54:50.833Z,1020.91
2022-10-20T04:55:50.779Z,1020.89
2022-10-20T04:56:50.772Z,1020.86
2022-10-20T04:57:50.765Z,1020.86
2022-10-20T04:58:50.760Z,1020.93
2022-10-20T04:59:50.747Z,1020.90
2022-10-20T05:00:50.725Z,1020.83
2022-10-20T05:01:50.781Z,1020.90
2022-10-20T05:02:50.690Z,1020.84
2022-10-20T05:03:50.693Z,1020.81
2022-10-20T05:04:50.676Z,1020.79
2022-10-20T05:05:50.664Z,1020.80
2022-10-20T05:06:50.639Z,1020.79
2022-10-20T05:07:50.622Z,1020.75
2022-10-20T05:08:50.683Z,1020.73
2022-10-20T05:09:50.615Z,1020.68
2022-10-20T05:10:50.595Z,1020.68
2022-10-20T05:11:50.569Z,1020.71
2022-10-20T05:12:50.555Z,1020.66
2022-10-20T05:13:50.577Z,1020.69
2022-10-20T05:14:50.532Z,1020.59
2022-10-20T05:15:50.521Z,1020.55
2022-10-20T05:16:50.499Z,1020.50
2022-10-20T05:17:50.492Z,1020.54
2022-10-20T05:18:50.513Z,1020.49
2022-10-20T05:19:50.464Z,1020.52
2022-10-20T05:21:07.783Z,1020.51
2022-10-20T05:21:51.433Z,1020.41
2022-10-20T05:22:50.426Z,1020.43
2022-10-20T05:23:50.427Z,1020.35
2022-10-20T05:24:50.401Z,1020.34
2022-10-20T05:25:50.412Z,1020.31
2022-10-20T05:26:50.367Z,1020.29
2022-10-20T05:27:50.374Z,1020.28
2022-10-20T05:28:50.342Z,1020.36
2022-10-20T05:29:50.343Z,1020.27
2022-10-20T05:30:50.343Z,1020.32
2022-10-20T05:31:50.294Z,1020.36
2022-10-20T05:32:50.279Z,1020.31
2022-10-20T05:33:50.281Z,1020.38
2022-10-20T05:34:50.279Z,1020.38
2022-10-20T05:35:50.240Z,1020.40
2022-10-20T05:36:50.233Z,1020.34
2022-10-20T05:37:50.210Z,1020.31
2022-10-20T05:38:50.203Z,1020.26
2022-10-20T05:39:50.230Z,1020.29
2022-10-20T05:40:50.176Z,1020.20
2022-10-20T05:41:50.153Z,1020.15
2022-10-20T05:42:50.334Z,1020.09
2022-10-20T05:43:50.142Z,1020.11
2022-10-20T05:44:50.131Z,1020.07
2022-10-20T05:45:50.102Z,1020.08
2022-10-20T05:46:50.106Z,1020.06
2022-10-20T05:47:50.083Z,1020.01
2022-10-20T05:48:50.072Z,1019.97
2022-10-20T05:49:50.060Z,1020.03
2022-10-20T05:50:50.060Z,1020.03
2022-10-20T05:51:50.038Z,1020.03
2022-10-20T05:52:50.018Z,1020.03
2022-10-20T05:53:49.990Z,1020.06
2022-10-20T05:54:50.011Z,1020.04
2022-10-20T05:55:49.968Z,1020.08
2022-10-20T05:56:49.969Z,1020.12
2022-10-20T05:57:49.941Z,1020.10
2022-10-20T05:58:49.924Z,1020.07
2022-10-20T05:59:49.955Z,1020.07
2022-10-20T06:00:49.926Z,1020.02
2022-10-20T06:01:49.906Z,1020.04
2022-10-20T06:02:49.876Z,1020.03
2022-10-20T06:03:49.867Z,1020.04
2022-10-20T06:04:49.867Z,1020.06
2022-10-20T06:05:49.871Z,1020.03
2022-10-20T06:06:49.834Z,1020.11
2022-10-20T06:07:49.798Z,1020.08
2022-10-20T06:08:49.854Z,1020.07
2022-10-20T06:09:49.797Z,1019.99
2022-10-20T06:10:49.763Z,1020.06
2022-10-20T06:11:49.745Z,1020.06
2022-10-20T06:12:49.765Z,1019.97
2022-10-20T06:13:52.650Z,1019.95
2022-10-20T06:14:49.727Z,1020.04
2022-10-20T06:15:49.705Z,1020.04
2022-10-20T06:16:50.198Z,1019.93
2022-10-20T06:17:49.673Z,1019.99
2022-10-20T06:18:49.663Z,1020.03
2022-10-20T06:19:49.655Z,1019.95
2022-10-20T06:20:49.633Z,1019.98
2022-10-20T06:21:49.774Z,1019.93
2022-10-20T06:22:49.606Z,1020.02
2022-10-20T06:23:49.598Z,1020.00
2022-10-20T06:24:49.606Z,1020.02
2022-10-20T06:25:49.586Z,1020.00
2022-10-20T06:26:49.558Z,1019.96
2022-10-20T06:27:49.557Z,1020.07
2022-10-20T06:28:49.526Z,1020.10
2022-10-20T06:29:49.535Z,1020.19
2022-10-20T06:30:49.496Z,1020.11
2022-10-20T06:31:49.511Z,1020.08
2022-10-20T06:32:49.485Z,1020.05
2022-10-20T06:33:49.460Z,1020.12
2022-10-20T06:34:49.463Z,1020.13
2022-10-20T06:35:49.432Z,1020.07
2022-10-20T06:36:49.442Z,1020.14
2022-10-20T06:37:49.411Z,1020.03
2022-10-20T06:38:49.444Z,1020.08
2022-10-20T06:39:49.402Z,1020.12
2022-10-20T06:40:49.366Z,1020.07
2022-10-20T06:41:49.367Z,1020.07
2022-10-20T06:42:49.399Z,1020.07
2022-10-20T06:43:49.330Z,1020.07
2022-10-20T06:44:49.325Z,1020.10
2022-10-20T06:45:49.302Z,1020.11
2022-10-20T06:46:49.318Z,1020.09
2022-10-20T06:47:49.276Z,1020.00
2022-10-20T06:48:49.271Z,1020.08
2022-10-20T06:49:49.273Z,1020.00
2022-10-20T06:50:49.250Z,1020.04
2022-10-20T06:51:49.245Z,1020.05
2022-10-20T06:52:49.222Z,1020.01
2022-10-20T06:53:49.236Z,1020.02
2022-10-20T06:54:49.218Z,1020.07
2022-10-20T06:55:49.174Z,1020.06
2022-10-20T06:56:49.181Z,1020.02
2022-10-20T06:57:49.152Z,1020.03
2022-10-20T06:58:49.135Z,1019.96
2022-10-20T06:59:49.139Z,1020.07
2022-10-20T07:00:49.133Z,1019.98
2022-10-20T07:01:49.147Z,1020.02
2022-10-20T07:02:49.091Z,1020.02
2022-10-20T07:03:49.084Z,1020.01
2022-10-20T07:04:49.097Z,1019.99
2022-10-20T07:05:49.042Z,1020.07
2022-10-20T07:06:49.033Z,1020.02
2022-10-20T07:07:49.025Z,1020.00
2022-10-20T07:08:49.073Z,1019.95
2022-10-20T07:09:49.018Z,1020.00
2022-10-20T07:10:48.977Z,1019.92
2022-10-20T07:11:48.966Z,1019.95
2022-10-20T07:12:49.205Z,1019.89
2022-10-20T07:13:48.955Z,1019.90
2022-10-20T07:14:48.990Z,1019.90
2022-10-20T07:15:48.915Z,1019.80
2022-10-20T07:16:48.897Z,1019.91
2022-10-20T07:17:48.886Z,1019.89
2022-10-20T07:18:48.875Z,1020.01
2022-10-20T07:19:48.911Z,1019.92
2022-10-20T07:20:48.843Z,1019.90
2022-10-20T07:21:48.839Z,1019.90
2022-10-20T07:22:48.823Z,1019.96
2022-10-20T07:23:48.815Z,1019.93
2022-10-20T07:24:48.813Z,1019.97
2022-10-20T07:25:48.780Z,1019.94
2022-10-20T07:26:48.772Z,1019.84
2022-10-20T07:27:48.767Z,1019.92
2022-10-20T07:28:53.188Z,1019.72
2022-10-20T07:29:49.764Z,1019.75
2022-10-20T07:30:48.734Z,1019.66
2022-10-20T07:31:48.713Z,1019.67
2022-10-20T07:32:48.690Z,1019.62
2022-10-20T07:34:06.698Z,1019.56
2022-10-20T07:34:49.706Z,1019.58
2022-10-20T07:35:48.658Z,1019.37
2022-10-20T07:36:48.643Z,1019.41
2022-10-20T07:37:48.631Z,1019.31
2022-10-20T07:38:48.635Z,1019.32
2022-10-20T07:39:48.614Z,1019.36
2022-10-20T07:40:48.598Z,1019.30
2022-10-20T07:41:48.743Z,1019.25
2022-10-20T07:42:48.568Z,1019.34
2022-10-20T07:43:48.558Z,1019.36
2022-10-20T07:44:48.543Z,1019.34
2022-10-20T07:45:48.541Z,1019.35
2022-10-20T07:46:48.522Z,1019.42
2022-10-20T07:47:48.501Z,1019.39
2022-10-20T07:48:48.477Z,1019.35
2022-10-20T07:49:48.480Z,1019.39
2022-10-20T07:50:48.453Z,1019.41
2022-10-20T07:51:48.470Z,1019.33
2022-10-20T07:52:48.442Z,1019.31
2022-10-20T07:53:48.447Z,1019.33
2022-10-20T07:54:48.414Z,1019.31
2022-10-20T07:55:48.384Z,1019.37
2022-10-20T07:56:48.392Z,1019.32
2022-10-20T07:57:48.357Z,1019.39
2022-10-20T07:58:48.343Z,1019.31
2022-10-20T07:59:48.363Z,1019.25
2022-10-20T08:00:48.321Z,1019.15
2022-10-20T08:01:48.341Z,1019.20
2022-10-20T08:02:48.311Z,1019.19
2022-10-20T08:03:48.295Z,1019.14
2022-10-20T08:04:48.357Z,1019.16
2022-10-20T08:05:48.264Z,1019.15
2022-10-20T08:06:48.252Z,1019.04
2022-10-20T08:07:48.240Z,1019.03
2022-10-20T08:08:48.265Z,1019.13
2022-10-20T08:09:48.242Z,1019.02
2022-10-20T08:10:48.191Z,1018.95
2022-10-20T08:11:51.445Z,1018.95
2022-10-20T08:12:49.170Z,1018.94
2022-10-20T08:13:48.309Z,1018.94
2022-10-20T08:14:50.300Z,1018.87
2022-10-20T08:15:49.005Z,1018.93
2022-10-20T08:16:49.761Z,1018.88
2022-10-20T08:17:48.121Z,1018.84
2022-10-20T08:18:49.640Z,1018.88
2022-10-20T08:19:51.772Z,1018.79
2022-10-20T08:20:48.062Z,1018.73
2022-10-20T08:21:48.060Z,1018.78
2022-10-20T08:22:48.033Z,1018.71
2022-10-20T08:23:48.019Z,1018.73
2022-10-20T08:24:48.029Z,1018.74
2022-10-20T08:25:48.022Z,1018.69
2022-10-20T08:26:48.004Z,1018.65
2022-10-20T08:27:47.989Z,1018.69
2022-10-20T08:28:47.951Z,1018.61
2022-10-20T08:29:55.285Z,1018.56
2022-10-20T08:30:48.926Z,1018.46
2022-10-20T08:31:47.938Z,1018.56
2022-10-20T08:32:47.907Z,1018.52
2022-10-20T08:33:52.255Z,1018.38
2022-10-20T08:34:47.900Z,1018.39
2022-10-20T08:35:47.869Z,1018.37
2022-10-20T08:36:47.867Z,1018.46
2022-10-20T08:37:47.842Z,1018.34
2022-10-20T08:38:47.815Z,1018.45
2022-10-20T08:39:47.841Z,1018.44
2022-10-20T08:40:47.801Z,1018.34
2022-10-20T08:42:48.778Z,1018.42
2022-10-20T08:43:47.870Z,1018.26
2022-10-20T08:44:47.759Z,1018.22
2022-10-20T08:45:47.738Z,1018.23
2022-10-20T08:46:47.977Z,1018.05
2022-10-20T08:47:47.713Z,1018.21
2022-10-20T08:48:47.710Z,1017.88
2022-10-20T08:49:47.701Z,1018.06
2022-10-20T08:50:47.667Z,1018.12
2022-10-20T08:51:47.650Z,1018.21
2022-10-20T08:52:47.637Z,1018.18
2022-10-20T08:53:47.642Z,1018.24
2022-10-20T08:54:52.514Z,1018.16
2022-10-20T08:55:47.618Z,1018.24
2022-10-20T08:56:47.584Z,1018.08
2022-10-20T08:57:47.636Z,1018.12
2022-10-20T08:58:47.553Z,1018.12
2022-10-20T08:59:47.558Z,1018.13
2022-10-20T09:00:47.541Z,1018.07
2022-10-20T09:01:47.594Z,1018.08
2022-10-20T09:02:47.520Z,1018.08
2022-10-20T09:03:47.491Z,1018.04
2022-10-20T09:04:47.507Z,1018.16
2022-10-20T09:05:47.464Z,1018.06
2022-10-20T09:06:47.463Z,1018.08
2022-10-20T09:07:47.447Z,1018.09
2022-10-20T09:08:47.491Z,1018.03
2022-10-20T09:09:47.440Z,1018.00
2022-10-20T09:10:47.399Z,1017.95
2022-10-20T09:11:47.387Z,1017.99
2022-10-20T09:12:47.374Z,1017.99
2022-10-20T09:14:47.366Z,1017.91
2022-10-20T09:15:47.357Z,1017.84
2022-10-20T09:17:02.361Z,1017.96
2022-10-20T09:17:48.326Z,1017.82
2022-10-20T09:18:47.375Z,1017.90
2022-10-20T09:19:47.300Z,1017.82
2022-10-20T09:20:47.279Z,1017.88
2022-10-20T09:21:47.259Z,1017.77
2022-10-20T09:22:47.253Z,1017.75
2022-10-20T09:23:47.295Z,1017.75
2022-10-20T09:24:47.223Z,1017.66
2022-10-20T09:25:47.225Z,1017.71
2022-10-20T09:27:02.444Z,1017.74
2022-10-20T09:27:48.191Z,1017.72
2022-10-20T09:29:02.118Z,1017.67
2022-10-20T09:29:48.175Z,1017.58
2022-10-20T09:30:47.139Z,1017.62
2022-10-20T09:31:47.135Z,1017.64
2022-10-20T09:32:48.032Z,1017.61
2022-10-20T09:33:48.114Z,1017.60
2022-10-20T09:34:47.087Z,1017.59
2022-10-20T09:35:47.070Z,1017.61
2022-10-20T09:36:47.050Z,1017.61
2022-10-20T09:37:47.069Z,1017.61
2022-10-20T09:38:47.034Z,1017.64
2022-10-20T09:39:50.167Z,1017.68
2022-10-20T09:40:48.018Z,1017.62
2022-10-20T09:41:46.989Z,1017.62
2022-10-20T09:42:47.023Z,1017.59
2022-10-20T09:43:46.983Z,1017.62
2022-10-20T09:44:46.950Z,1017.71
2022-10-20T09:45:46.960Z,1017.70
2022-10-20T09:46:46.950Z,1017.76
2022-10-20T09:47:46.916Z,1017.80
2022-10-20T09:48:46.895Z,1017.83
2022-10-20T09:49:46.904Z,1017.85
2022-10-20T09:50:46.891Z,1017.88
2022-10-20T09:51:46.916Z,1017.97
2022-10-20T09:52:46.856Z,1017.91
2022-10-20T09:53:46.850Z,1017.82
2022-10-20T09:54:46.821Z,1017.78
2022-10-20T09:55:46.831Z,1017.79
2022-10-20T09:56:46.791Z,1017.69
2022-10-20T09:57:46.778Z,1017.71
2022-10-20T09:58:46.783Z,1017.75
2022-10-20T09:59:46.766Z,1017.78
2022-10-20T10:00:46.802Z,1017.77
2022-10-20T10:01:46.725Z,1017.85
2022-10-20T10:02:46.709Z,1017.78
2022-10-20T10:03:46.701Z,1017.67
2022-10-20T10:04:46.697Z,1017.68
2022-10-20T10:05:46.722Z,1017.67
2022-10-20T10:06:46.661Z,1017.69
2022-10-20T10:07:46.646Z,1017.58
2022-10-20T10:08:46.686Z,1017.72
2022-10-20T10:09:46.659Z,1017.77
2022-10-20T10:10:46.607Z,1017.65
2022-10-20T10:11:46.600Z,1017.75
2022-10-20T10:12:46.572Z,1017.82
2022-10-20T10:13:46.660Z,1017.81
2022-10-20T10:14:46.558Z,1017.74
2022-10-20T10:15:46.564Z,1017.69
2022-10-20T10:16:46.526Z,1017.61
2022-10-20T10:17:46.520Z,1017.74
2022-10-20T10:18:48.499Z,1017.68
2022-10-20T10:19:46.487Z,1017.57
2022-10-20T10:20:46.505Z,1017.58
2022-10-20T10:21:46.480Z,1017.54
2022-10-20T10:22:46.456Z,1017.49
2022-10-20T10:23:46.485Z,1017.37
2022-10-20T10:24:46.486Z,1017.30
2022-10-20T10:25:46.461Z,1017.27
2022-10-20T10:26:46.401Z,1017.22
2022-10-20T10:27:46.382Z,1017.20
2022-10-20T10:28:46.373Z,1017.21
2022-10-20T10:29:46.362Z,1017.19
2022-10-20T10:30:49.443Z,1016.98
2022-10-20T10:31:46.342Z,1017.08
2022-10-20T10:32:46.328Z,1017.05
2022-10-20T10:33:46.310Z,1017.02
2022-10-20T10:34:46.290Z,1016.97
2022-10-20T10:35:46.286Z,1016.98
2022-10-20T10:36:46.267Z,1016.95
2022-10-20T10:37:46.251Z,1016.97
2022-10-20T10:38:46.240Z,1016.98
2022-10-20T10:39:46.239Z,1016.99
2022-10-20T10:40:46.266Z,1016.95
2022-10-20T10:41:46.222Z,1017.03
2022-10-20T10:42:46.185Z,1016.92
2022-10-20T10:43:48.607Z,1016.90
2022-10-20T10:44:46.226Z,1016.82
2022-10-20T10:45:46.172Z,1016.88
2022-10-20T10:46:46.137Z,1016.84
2022-10-20T10:47:46.465Z,1016.91
2022-10-20T10:48:46.127Z,1016.89
2022-10-20T10:49:46.099Z,1016.86
2022-10-20T10:50:46.081Z,1016.82
2022-10-20T10:51:46.057Z,1016.81
2022-10-20T10:52:46.053Z,1016.86
2022-10-20T10:53:46.054Z,1016.77
2022-10-20T10:54:46.034Z,1016.79
2022-10-20T10:55:49.617Z,1016.75
2022-10-20T10:56:45.988Z,1016.77
2022-10-20T10:57:46.005Z,1016.73
2022-10-20T10:58:45.964Z,1016.59
2022-10-20T10:59:45.985Z,1016.65
2022-10-20T11:00:45.983Z,1016.64
2022-10-20T11:01:45.917Z,1016.55
2022-10-20T11:02:45.932Z,1016.53
2022-10-20T11:03:45.895Z,1016.48
2022-10-20T11:04:46.103Z,1016.45
2022-10-20T11:05:45.871Z,1016.43
2022-10-20T11:06:45.864Z,1016.45
2022-10-20T11:07:45.838Z,1016.40
2022-10-20T11:08:45.906Z,1016.38
2022-10-20T11:09:45.816Z,1016.32
2022-10-20T11:10:45.825Z,1016.27
2022-10-20T11:11:45.810Z,1016.23
2022-10-20T11:12:45.781Z,1016.19
2022-10-20T11:13:45.757Z,1016.15
2022-10-20T11:14:45.752Z,1016.18
2022-10-20T11:15:45.736Z,1016.13
2022-10-20T11:16:45.758Z,1016.17
2022-10-20T11:17:45.716Z,1016.10
2022-10-20T11:18:45.710Z,1016.01
2022-10-20T11:19:45.679Z,1016.09
2022-10-20T11:20:45.674Z,1016.17
2022-10-20T11:21:45.670Z,1016.03
2022-10-20T11:22:45.656Z,1016.12
2022-10-20T11:23:45.626Z,1016.12
2022-10-20T11:24:45.626Z,1016.06
2022-10-20T11:25:45.617Z,1016.13
2022-10-20T11:26:45.605Z,1016.13
2022-10-20T11:27:45.578Z,1016.01
2022-10-20T11:28:45.601Z,1016.04
2022-10-20T11:29:45.549Z,1016.05
2022-10-20T11:30:45.553Z,1016.01
2022-10-20T11:31:45.519Z,1015.90
2022-10-20T11:32:45.513Z,1015.85
2022-10-20T11:33:45.508Z,1015.86
2022-10-20T11:34:45.507Z,1015.88
2022-10-20T11:35:45.466Z,1015.87
2022-10-20T11:36:45.465Z,1015.86
2022-10-20T11:37:45.445Z,1015.90
2022-10-20T11:38:45.478Z,1015.86
2022-10-20T11:39:45.433Z,1015.85
2022-10-20T11:40:45.403Z,1015.92
2022-10-20T11:41:45.398Z,1015.80
2022-10-20T11:42:45.383Z,1015.78
2022-10-20T11:43:45.359Z,1015.75
2022-10-20T11:44:45.413Z,1015.71
2022-10-20T11:45:45.331Z,1015.69
2022-10-20T11:46:45.338Z,1015.68
2022-10-20T11:47:45.314Z,1015.66
2022-10-20T11:48:45.310Z,1015.70
2022-10-20T11:49:45.302Z,1015.68
2022-10-20T11:50:45.285Z,1015.66
2022-10-20T11:51:45.260Z,1015.66
2022-10-20T11:52:45.271Z,1015.59
2022-10-20T11:53:45.232Z,1015.66
2022-10-20T11:54:45.219Z,1015.61
2022-10-20T11:55:45.217Z,1015.67
2022-10-20T11:56:45.189Z,1015.59
2022-10-20T11:57:45.208Z,1015.56
2022-10-20T11:58:45.167Z,1015.56
2022-10-20T11:59:45.147Z,1015.62
2022-10-20T12:00:45.168Z,1015.53
2022-10-20T12:01:45.177Z,1015.47
2022-10-20T12:02:45.132Z,1015.56
2022-10-20T12:03:45.134Z,1015.59
2022-10-20T12:04:45.104Z,1015.48
2022-10-20T12:05:45.068Z,1015.53
2022-10-20T12:06:45.096Z,1015.46
2022-10-20T12:07:45.054Z,1015.38
2022-10-20T12:08:45.126Z,1015.39